Sheridan Park, Washington
Current Conditions -  °F | °C
As of 4:15 PM on Monday 20 Oct 2014 (Local Time) from KPWT Reporting Station
Scattered Clouds Scattered Clouds  
Wind Chill: 61°   Ceiling: Unl
Heat Index: 61°   Visibility: 10mi
Dew Point: 54°   Wind: 9mph
Humidity: 77%   Direction: 160°SSE
Pressure: 29.77"   Gusts: NA
Location:  47.6314°N, 122.638°W
Report Text: KPWT 202315Z AUTO 16008KT 10SM FEW023 SCT034 16/12 A2977 RMK AO1
Loading
Personal Weather Stations






























Interactive Weather Map
Tropical Storm Tracking
New forecast layout! Learn more

10-Day Weather Forecast

Advertisements
Track Severe Weather on mobile